createdAt,value
2023-02-08T00:00:44.100Z,22.73
2023-02-08T00:03:10.936Z,21.27
2023-02-08T00:05:38.055Z,21.30
2023-02-08T00:08:05.440Z,19.63
2023-02-08T00:10:32.208Z,21.93
2023-02-08T00:12:59.019Z,22.87
2023-02-08T00:15:25.712Z,23.90
2023-02-08T00:17:52.391Z,22.27
2023-02-08T00:20:19.299Z,21.43
2023-02-08T00:22:46.043Z,23.93
2023-02-08T00:25:12.689Z,24.60
2023-02-08T00:27:39.427Z,22.63
2023-02-08T00:30:07.092Z,21.53
2023-02-08T00:32:33.704Z,23.47
2023-02-08T00:35:00.340Z,21.97
2023-02-08T00:37:26.985Z,21.57
2023-02-08T00:39:54.194Z,18.97
2023-02-08T00:42:20.866Z,18.90
2023-02-08T00:44:47.492Z,23.03
2023-02-08T00:47:14.118Z,20.27
2023-02-08T00:49:40.737Z,22.77
2023-02-08T00:52:07.353Z,21.53
2023-02-08T00:54:33.962Z,20.83
2023-02-08T00:57:00.598Z,23.87
2023-02-08T00:59:27.813Z,20.60
2023-02-08T01:01:54.575Z,21.33
2023-02-08T01:04:21.289Z,21.40
2023-02-08T01:06:48.169Z,21.60
2023-02-08T01:09:14.807Z,24.07
2023-02-08T01:11:41.447Z,23.07
2023-02-08T01:14:08.134Z,21.57
2023-02-08T01:16:35.107Z,23.83
2023-02-08T01:19:03.368Z,22.90
2023-02-08T01:21:32.984Z,21.87
2023-02-08T01:24:00.539Z,23.67
2023-02-08T01:26:27.428Z,18.13
2023-02-08T01:28:55.372Z,18.20
2023-02-08T01:31:26.039Z,22.17
2023-02-08T01:33:52.711Z,24.23
2023-02-08T01:36:19.398Z,20.37
2023-02-08T01:38:47.127Z,20.33
2023-02-08T01:41:18.033Z,21.20
2023-02-08T01:44:07.361Z,19.23
2023-02-08T01:46:48.652Z,20.33
2023-02-08T01:49:21.276Z,20.67
2023-02-08T01:51:53.973Z,21.87
2023-02-08T01:54:23.871Z,19.70
2023-02-08T01:56:51.346Z,17.13
2023-02-08T01:59:37.961Z,17.63
2023-02-08T02:02:07.983Z,19.17
2023-02-08T02:04:35.631Z,18.07
2023-02-08T02:07:04.633Z,18.07
2023-02-08T02:09:44.971Z,18.80
2023-02-08T02:12:12.855Z,19.73
2023-02-08T02:14:40.276Z,16.57
2023-02-08T02:17:07.083Z,15.50
2023-02-08T02:19:48.669Z,18.00
2023-02-08T02:23:01.872Z,17.87
2023-02-08T02:25:34.345Z,15.40
2023-02-08T02:28:34.048Z,17.43
2023-02-08T02:31:22.335Z,18.83
2023-02-08T02:34:06.981Z,18.43
2023-02-08T02:36:49.124Z,19.47
2023-02-08T02:39:29.913Z,16.13
2023-02-08T02:42:43.678Z,14.77
2023-02-08T02:45:25.294Z,15.20
2023-02-08T02:48:11.908Z,16.87
2023-02-08T02:50:49.304Z,18.33
2023-02-08T02:53:43.976Z,19.97
2023-02-08T02:56:24.620Z,16.47
2023-02-08T02:58:53.389Z,15.53
2023-02-08T03:01:29.858Z,16.93
2023-02-08T03:03:57.178Z,15.03
2023-02-08T03:07:10.052Z,18.70
2023-02-08T03:10:04.435Z,14.53
2023-02-08T03:12:58.641Z,16.70
2023-02-08T03:16:09.497Z,22.60
2023-02-08T03:19:05.615Z,21.97
2023-02-08T03:21:58.846Z,17.93
2023-02-08T03:24:48.882Z,15.67
2023-02-08T03:27:31.289Z,16.67
2023-02-08T03:29:57.816Z,17.47
2023-02-08T03:32:41.028Z,22.17
2023-02-08T03:35:17.901Z,17.13
2023-02-08T03:37:50.381Z,16.50
2023-02-08T03:40:29.632Z,18.07
2023-02-08T03:43:01.992Z,21.57
2023-02-08T03:45:37.279Z,19.20
2023-02-08T03:48:06.559Z,18.73
2023-02-08T03:50:37.095Z,19.67
2023-02-08T03:53:05.218Z,19.73
2023-02-08T03:55:36.279Z,29.03
2023-02-08T03:58:19.561Z,31.47
2023-02-08T04:00:52.280Z,30.33
2023-02-08T04:03:28.051Z,24.87
2023-02-08T04:05:55.398Z,27.47
2023-02-08T04:08:22.341Z,29.43
2023-02-08T04:10:49.625Z,23.30
2023-02-08T04:13:16.272Z,20.30
2023-02-08T04:15:44.227Z,25.63
2023-02-08T04:18:11.363Z,24.23
2023-02-08T04:20:38.141Z,21.30
2023-02-08T04:23:05.976Z,24.43
2023-02-08T04:25:32.549Z,26.27
2023-02-08T04:28:01.942Z,21.93
2023-02-08T04:30:28.654Z,24.23
2023-02-08T04:32:55.304Z,24.50
2023-02-08T04:35:21.918Z,22.00
2023-02-08T04:37:48.573Z,23.87
2023-02-08T04:40:15.230Z,25.30
2023-02-08T04:42:41.844Z,25.47
2023-02-08T04:45:09.226Z,24.63
2023-02-08T04:47:36.062Z,22.87
2023-02-08T04:50:02.718Z,24.83
2023-02-08T04:52:29.414Z,22.93
2023-02-08T04:54:56.254Z,25.33
2023-02-08T04:57:22.907Z,22.30
2023-02-08T04:59:49.550Z,22.77
2023-02-08T05:02:18.244Z,23.43
2023-02-08T05:04:45.028Z,26.27
2023-02-08T05:07:11.628Z,25.40
2023-02-08T05:09:38.214Z,24.23
2023-02-08T05:12:05.361Z,23.00
2023-02-08T05:14:31.964Z,23.07
2023-02-08T05:16:58.633Z,29.03
2023-02-08T05:19:26.208Z,24.50
2023-02-08T05:21:52.805Z,24.07
2023-02-08T05:24:19.436Z,24.70
2023-02-08T05:26:46.165Z,23.30
2023-02-08T05:29:12.821Z,27.30
2023-02-08T05:31:39.872Z,22.33
2023-02-08T05:34:06.572Z,21.63
2023-02-08T05:36:33.208Z,21.37
2023-02-08T05:38:59.799Z,25.07
2023-02-08T05:41:26.611Z,21.50
2023-02-08T05:43:53.189Z,25.47
2023-02-08T05:46:19.866Z,24.37
2023-02-08T05:48:46.558Z,24.50
2023-02-08T05:51:13.286Z,21.67
2023-02-08T05:53:39.886Z,21.37
2023-02-08T05:56:06.891Z,24.70
2023-02-08T05:58:34.120Z,22.63
2023-02-08T06:01:00.916Z,20.23
2023-02-08T06:03:27.615Z,22.93
2023-02-08T06:05:54.316Z,22.20
2023-02-08T06:08:20.951Z,19.13
2023-02-08T06:10:49.257Z,22.50
2023-02-08T06:13:15.954Z,22.77
2023-02-08T06:15:42.643Z,23.30
2023-02-08T06:18:09.390Z,22.00
2023-02-08T06:20:36.429Z,23.97
2023-02-08T06:23:03.485Z,22.00
2023-02-08T06:25:30.324Z,22.27
2023-02-08T06:27:57.591Z,22.37
2023-02-08T06:30:24.586Z,24.93
2023-02-08T06:32:51.222Z,27.63
2023-02-08T06:35:17.997Z,23.37
2023-02-08T06:37:44.653Z,23.13
2023-02-08T06:40:11.421Z,23.77
2023-02-08T06:42:38.087Z,27.73
2023-02-08T06:45:05.675Z,26.50
2023-02-08T06:47:32.260Z,24.90
2023-02-08T06:49:58.870Z,24.07
2023-02-08T06:52:25.548Z,24.93
2023-02-08T06:54:52.151Z,26.17
2023-02-08T06:57:18.831Z,25.03
2023-02-08T06:59:45.684Z,35.67
2023-02-08T07:02:19.901Z,25.47
2023-02-08T07:04:46.894Z,23.50
2023-02-08T07:07:14.896Z,27.17
2023-02-08T07:09:42.227Z,24.30
2023-02-08T07:12:09.270Z,25.30
2023-02-08T07:14:38.838Z,27.30
2023-02-08T07:17:05.648Z,23.80
2023-02-08T07:19:32.535Z,24.67
2023-02-08T07:22:07.945Z,26.90
2023-02-08T07:24:36.130Z,28.70
2023-02-08T07:27:03.281Z,29.87
2023-02-08T07:29:31.195Z,27.03
2023-02-08T07:31:59.700Z,29.33
2023-02-08T07:34:28.738Z,25.80
2023-02-08T07:36:55.421Z,29.87
2023-02-08T07:39:23.382Z,29.83
2023-02-08T07:41:49.981Z,29.07
2023-02-08T07:44:16.590Z,28.20
2023-02-08T07:46:43.320Z,28.13
2023-02-08T07:49:10.187Z,31.63
2023-02-08T07:51:36.845Z,29.30
2023-02-08T07:54:03.623Z,25.57
2023-02-08T07:56:30.485Z,26.20
2023-02-08T07:58:57.212Z,27.83
2023-02-08T08:01:24.086Z,26.87
2023-02-08T08:03:51.796Z,25.73
2023-02-08T08:06:20.127Z,28.67
2023-02-08T08:08:47.598Z,28.77
2023-02-08T08:11:15.674Z,31.10
2023-02-08T08:13:42.710Z,29.67
2023-02-08T08:16:09.795Z,29.97
2023-02-08T08:18:36.532Z,32.97
2023-02-08T08:21:04.154Z,31.90
2023-02-08T08:23:33.011Z,30.83
2023-02-08T08:26:00.520Z,26.93
2023-02-08T08:28:28.010Z,33.97
2023-02-08T08:30:54.905Z,31.67
2023-02-08T08:33:21.626Z,29.00
2023-02-08T08:35:48.281Z,27.63
2023-02-08T08:38:14.910Z,27.70
2023-02-08T08:40:42.010Z,30.73
2023-02-08T08:43:08.934Z,29.83
2023-02-08T08:45:36.201Z,33.37
2023-02-08T08:48:06.171Z,32.50
2023-02-08T08:50:32.817Z,27.97
2023-02-08T08:52:59.556Z,28.20
2023-02-08T08:55:27.813Z,26.13
2023-02-08T08:57:54.949Z,31.90
2023-02-08T09:00:21.820Z,26.00
2023-02-08T09:02:48.773Z,25.13
2023-02-08T09:05:15.453Z,26.67
2023-02-08T09:07:42.120Z,28.33
2023-02-08T09:10:08.926Z,31.03
2023-02-08T09:12:35.904Z,31.13
2023-02-08T09:15:02.556Z,26.43
2023-02-08T09:17:29.197Z,25.43
2023-02-08T09:19:55.840Z,27.33
2023-02-08T09:22:22.571Z,29.00
2023-02-08T09:24:49.219Z,31.30
2023-02-08T09:27:15.963Z,27.23
2023-02-08T09:29:42.583Z,30.23
2023-02-08T09:32:12.307Z,30.30
2023-02-08T09:34:38.958Z,26.77
2023-02-08T09:37:06.926Z,30.57
2023-02-08T09:39:34.722Z,26.90
2023-02-08T09:42:09.325Z,26.70
2023-02-08T09:45:15.433Z,26.07
2023-02-08T09:48:03.663Z,28.00
2023-02-08T09:50:42.249Z,26.30
2023-02-08T09:53:34.275Z,31.50
2023-02-08T09:56:07.322Z,29.87
2023-02-08T09:58:54.784Z,24.03
2023-02-08T10:01:25.120Z,28.87
2023-02-08T10:04:05.885Z,27.90
2023-02-08T10:06:32.607Z,24.00
2023-02-08T10:09:04.360Z,27.67
2023-02-08T10:11:49.433Z,24.97
2023-02-08T10:14:48.601Z,28.50
2023-02-08T10:17:33.929Z,24.60
2023-02-08T10:20:09.058Z,23.93
2023-02-08T10:22:41.649Z,30.03
2023-02-08T10:25:35.612Z,23.07
2023-02-08T10:28:37.546Z,23.03
2023-02-08T10:31:23.315Z,26.37
2023-02-08T10:33:54.766Z,25.83
2023-02-08T10:36:25.360Z,26.67
2023-02-08T10:38:54.627Z,26.07
2023-02-08T10:41:25.955Z,23.70
2023-02-08T10:44:06.269Z,22.57
2023-02-08T10:46:47.770Z,24.20
2023-02-08T10:49:32.338Z,24.17
2023-02-08T10:51:59.620Z,21.37
2023-02-08T10:54:26.397Z,22.93
2023-02-08T10:57:12.872Z,24.40
2023-02-08T10:59:47.432Z,21.03
2023-02-08T11:02:26.755Z,25.87
2023-02-08T11:05:12.589Z,20.57
2023-02-08T11:07:39.528Z,19.00
2023-02-08T11:10:17.858Z,22.27
2023-02-08T11:13:13.925Z,17.53
2023-02-08T11:15:49.734Z,16.07
2023-02-08T11:18:30.445Z,15.63
2023-02-08T11:21:03.675Z,19.37
2023-02-08T11:23:36.468Z,20.40
2023-02-08T11:26:17.254Z,23.97
2023-02-08T11:28:44.453Z,16.13
2023-02-08T11:31:20.527Z,20.03
2023-02-08T11:34:05.826Z,19.00
2023-02-08T11:36:37.925Z,17.50
2023-02-08T11:39:18.628Z,16.93
2023-02-08T11:41:51.524Z,15.80
2023-02-08T11:44:28.357Z,19.03
2023-02-08T11:46:56.552Z,16.50
2023-02-08T11:49:27.898Z,17.27
2023-02-08T11:51:55.112Z,19.37
2023-02-08T11:54:51.380Z,17.97
2023-02-08T11:57:23.330Z,17.00
2023-02-08T11:59:52.188Z,18.63
2023-02-08T12:02:39.869Z,15.33
2023-02-08T12:05:14.846Z,17.63
2023-02-08T12:08:18.505Z,16.57
2023-02-08T12:10:48.686Z,16.17
2023-02-08T12:13:18.143Z,18.23
2023-02-08T12:16:03.860Z,20.50
2023-02-08T12:18:46.825Z,16.47
2023-02-08T12:21:24.974Z,17.33
2023-02-08T12:24:27.833Z,16.13
2023-02-08T12:27:27.329Z,16.70
2023-02-08T12:30:01.009Z,16.90
2023-02-08T12:32:42.289Z,17.20
2023-02-08T12:35:38.835Z,15.83
2023-02-08T12:38:54.149Z,16.20
2023-02-08T12:41:30.397Z,14.63
2023-02-08T12:44:27.864Z,18.03
2023-02-08T12:47:32.186Z,17.73
2023-02-08T12:50:24.330Z,15.57
2023-02-08T12:52:57.266Z,13.97
2023-02-08T12:55:30.887Z,17.40
2023-02-08T12:58:31.123Z,17.53
2023-02-08T13:01:31.187Z,16.50
2023-02-08T13:04:10.827Z,14.77
2023-02-08T13:06:49.542Z,17.17
2023-02-08T13:09:33.903Z,14.77
2023-02-08T13:12:13.789Z,18.47
2023-02-08T13:14:55.645Z,17.53
2023-02-08T13:17:28.626Z,19.07
2023-02-08T13:20:07.142Z,20.70
2023-02-08T13:22:43.486Z,16.97
2023-02-08T13:25:25.926Z,18.87
2023-02-08T13:27:53.294Z,23.40
2023-02-08T13:30:22.057Z,16.57
2023-02-08T13:32:51.704Z,15.53
2023-02-08T13:35:20.811Z,18.90
2023-02-08T13:37:54.336Z,21.73
2023-02-08T13:40:28.039Z,17.87
2023-02-08T13:43:03.558Z,18.23
2023-02-08T13:45:37.487Z,19.23
2023-02-08T13:48:07.853Z,19.03
2023-02-08T13:50:34.554Z,15.47
2023-02-08T13:53:02.643Z,17.30
2023-02-08T13:55:33.239Z,14.20
2023-02-08T13:58:04.020Z,17.20
2023-02-08T14:00:35.801Z,16.30
2023-02-08T14:03:16.046Z,14.17
2023-02-08T14:05:58.523Z,16.90
2023-02-08T14:08:30.557Z,15.20
2023-02-08T14:11:07.550Z,14.27
2023-02-08T14:13:44.622Z,16.37
2023-02-08T14:16:28.540Z,18.20
2023-02-08T14:19:01.238Z,15.47
2023-02-08T14:21:32.619Z,18.17
2023-02-08T14:24:06.508Z,19.07
2023-02-08T14:26:33.589Z,20.97
2023-02-08T14:29:03.672Z,17.23
2023-02-08T14:31:44.936Z,20.60
2023-02-08T14:34:34.348Z,17.97
2023-02-08T14:37:04.103Z,18.03
2023-02-08T14:39:34.600Z,21.10
2023-02-08T14:42:05.543Z,19.07
2023-02-08T14:44:38.182Z,18.50
2023-02-08T14:47:35.649Z,19.17
2023-02-08T14:50:18.654Z,18.70
2023-02-08T14:53:10.622Z,19.83
2023-02-08T14:55:50.985Z,18.03
2023-02-08T14:58:29.193Z,20.43
2023-02-08T15:00:59.607Z,22.70
2023-02-08T15:03:32.954Z,20.47
2023-02-08T15:06:36.750Z,17.57
2023-02-08T15:09:18.136Z,22.27
2023-02-08T15:11:59.681Z,20.23
2023-02-08T15:14:26.938Z,20.07
2023-02-08T15:16:55.446Z,27.97
2023-02-08T15:19:45.312Z,21.17
2023-02-08T15:22:27.824Z,20.03
2023-02-08T15:25:01.512Z,19.07
2023-02-08T15:27:32.541Z,21.27
2023-02-08T15:30:00.181Z,21.03
2023-02-08T15:32:29.569Z,18.77
2023-02-08T15:35:03.982Z,20.53
2023-02-08T15:37:34.376Z,18.13
2023-02-08T15:40:01.545Z,22.10
2023-02-08T15:42:32.216Z,22.00
2023-02-08T15:45:00.582Z,18.00
2023-02-08T15:47:36.284Z,23.93
2023-02-08T15:50:06.957Z,18.73
2023-02-08T15:52:36.388Z,22.47
2023-02-08T15:55:07.700Z,23.50
2023-02-08T15:57:57.656Z,25.27
2023-02-08T16:00:31.751Z,20.90
2023-02-08T16:03:16.072Z,20.53
2023-02-08T16:06:02.484Z,20.27
2023-02-08T16:08:32.815Z,17.73
2023-02-08T16:11:12.562Z,22.07
2023-02-08T16:13:42.500Z,19.80
2023-02-08T16:16:28.582Z,20.33
2023-02-08T16:19:00.113Z,22.00
2023-02-08T16:21:38.830Z,19.40
2023-02-08T16:24:16.003Z,18.50
2023-02-08T16:26:53.397Z,20.30
2023-02-08T16:29:29.666Z,25.40
2023-02-08T16:32:04.430Z,16.67
2023-02-08T16:34:34.985Z,18.77
2023-02-08T16:37:04.632Z,17.83
2023-02-08T16:39:56.403Z,18.77
2023-02-08T16:42:35.874Z,19.70
2023-02-08T16:45:12.762Z,20.23
2023-02-08T16:47:42.531Z,23.43
2023-02-08T16:50:12.728Z,18.47
2023-02-08T16:52:40.012Z,20.53
2023-02-08T16:55:07.765Z,20.83
2023-02-08T16:57:43.376Z,19.90
2023-02-08T17:00:22.695Z,21.13
2023-02-08T17:02:49.847Z,20.70
2023-02-08T17:05:17.443Z,21.57
2023-02-08T17:07:44.573Z,22.27
2023-02-08T17:10:22.761Z,22.70
2023-02-08T17:12:49.491Z,18.97
2023-02-08T17:15:16.253Z,19.83
2023-02-08T17:17:42.933Z,22.73
2023-02-08T17:20:31.759Z,20.70
2023-02-08T17:22:59.973Z,21.30
2023-02-08T17:25:28.301Z,20.37
2023-02-08T17:28:04.287Z,23.80
2023-02-08T17:30:38.243Z,21.27
2023-02-08T17:33:06.625Z,21.30
2023-02-08T17:35:36.886Z,21.47
2023-02-08T17:38:04.602Z,23.83
2023-02-08T17:40:34.755Z,23.37
2023-02-08T17:43:02.130Z,22.83
2023-02-08T17:45:29.634Z,25.33
2023-02-08T17:48:00.002Z,22.93
2023-02-08T17:50:27.017Z,23.60
2023-02-08T17:52:54.059Z,21.43
2023-02-08T17:55:20.903Z,24.20
2023-02-08T17:57:47.800Z,24.33
2023-02-08T18:00:21.104Z,24.70
2023-02-08T18:02:53.648Z,21.40
2023-02-08T18:05:25.578Z,27.33
2023-02-08T18:07:54.670Z,21.87
2023-02-08T18:10:22.246Z,26.87
2023-02-08T18:12:49.015Z,22.17
2023-02-08T18:15:20.077Z,23.70
2023-02-08T18:17:50.682Z,23.20
2023-02-08T18:20:18.476Z,22.47
2023-02-08T18:22:45.541Z,20.80
2023-02-08T18:25:13.940Z,22.30
2023-02-08T18:27:40.744Z,23.40
2023-02-08T18:30:08.801Z,23.43
2023-02-08T18:32:36.103Z,24.60
2023-02-08T18:35:04.294Z,23.97
2023-02-08T18:37:32.130Z,23.63
2023-02-08T18:39:59.860Z,24.73
2023-02-08T18:42:26.956Z,23.77
2023-02-08T18:44:53.970Z,26.17
2023-02-08T18:47:20.706Z,26.00
2023-02-08T18:49:47.705Z,26.23
2023-02-08T18:52:15.904Z,21.67
2023-02-08T18:54:42.612Z,24.13
2023-02-08T18:57:12.014Z,23.50
2023-02-08T18:59:38.791Z,23.93
2023-02-08T19:02:07.293Z,23.57
2023-02-08T19:04:38.359Z,23.13
2023-02-08T19:07:05.912Z,21.80
2023-02-08T19:09:36.163Z,23.67
2023-02-08T19:12:03.112Z,28.90
2023-02-08T19:14:29.874Z,22.70
2023-02-08T19:16:56.630Z,24.40
2023-02-08T19:19:23.372Z,28.83
2023-02-08T19:21:50.047Z,25.53
2023-02-08T19:24:16.696Z,26.47
2023-02-08T19:26:43.371Z,28.50
2023-02-08T19:29:16.216Z,25.87
2023-02-08T19:31:43.719Z,28.00
2023-02-08T19:34:11.257Z,26.27
2023-02-08T19:36:42.212Z,25.97
2023-02-08T19:39:08.892Z,26.93
2023-02-08T19:41:38.706Z,27.37
2023-02-08T19:44:07.413Z,28.93
2023-02-08T19:46:38.611Z,28.50
2023-02-08T19:49:07.182Z,26.23
2023-02-08T19:51:36.923Z,27.77
2023-02-08T19:54:06.918Z,24.47
2023-02-08T19:56:33.951Z,27.47
2023-02-08T19:59:03.839Z,27.17
2023-02-08T20:01:33.005Z,23.80
2023-02-08T20:03:59.896Z,26.37
2023-02-08T20:06:30.163Z,26.50
2023-02-08T20:08:57.338Z,26.87
2023-02-08T20:11:31.282Z,27.23
2023-02-08T20:13:59.771Z,27.17
2023-02-08T20:16:31.902Z,29.33
2023-02-08T20:18:59.205Z,28.20
2023-02-08T20:21:26.850Z,30.37
2023-02-08T20:23:53.782Z,25.63
2023-02-08T20:26:26.538Z,23.90
2023-02-08T20:28:55.652Z,24.90
2023-02-08T20:31:28.197Z,27.87
2023-02-08T20:33:58.023Z,26.33
2023-02-08T20:36:27.008Z,28.40
2023-02-08T20:38:55.661Z,27.10
2023-02-08T20:41:24.586Z,25.53
2023-02-08T20:43:51.860Z,28.60
2023-02-08T20:46:24.754Z,28.87
2023-02-08T20:48:52.880Z,31.47
2023-02-08T20:51:25.451Z,26.60
2023-02-08T20:53:53.916Z,29.37
2023-02-08T20:56:27.226Z,28.40
2023-02-08T20:58:55.137Z,30.23
2023-02-08T21:01:27.885Z,29.10
2023-02-08T21:03:56.004Z,31.17
2023-02-08T21:06:31.463Z,28.53
2023-02-08T21:09:01.992Z,26.37
2023-02-08T21:11:30.663Z,25.27
2023-02-08T21:13:58.243Z,26.23
2023-02-08T21:16:25.152Z,25.37
2023-02-08T21:18:52.214Z,30.00
2023-02-08T21:21:19.733Z,27.97
2023-02-08T21:23:47.190Z,27.17
2023-02-08T21:26:16.383Z,23.70
2023-02-08T21:28:43.696Z,27.27
2023-02-08T21:31:17.235Z,27.70
2023-02-08T21:33:44.793Z,25.13
2023-02-08T21:36:14.338Z,25.63
2023-02-08T21:38:41.422Z,24.10
2023-02-08T21:41:22.822Z,28.10
2023-02-08T21:43:50.501Z,28.03
2023-02-08T21:46:18.057Z,30.53
2023-02-08T21:49:03.954Z,27.80
2023-02-08T21:51:51.089Z,24.73
2023-02-08T21:54:39.701Z,27.67
2023-02-08T21:57:15.094Z,22.13
2023-02-08T21:59:41.926Z,25.50
2023-02-08T22:02:13.798Z,26.90
2023-02-08T22:04:41.970Z,23.27
2023-02-08T22:07:08.642Z,23.37
2023-02-08T22:09:36.409Z,23.37
2023-02-08T22:12:03.145Z,25.03
2023-02-08T22:14:29.794Z,25.07
2023-02-08T22:16:56.423Z,23.37
2023-02-08T22:19:23.074Z,23.77
2023-02-08T22:21:51.288Z,24.03
2023-02-08T22:24:17.921Z,24.20
2023-02-08T22:26:45.702Z,25.50
2023-02-08T22:29:12.507Z,24.03
2023-02-08T22:31:39.302Z,24.93
2023-02-08T22:34:06.061Z,26.57
2023-02-08T22:36:32.722Z,27.53
2023-02-08T22:38:59.398Z,23.37
2023-02-08T22:41:26.285Z,23.20
2023-02-08T22:43:54.289Z,25.60
2023-02-08T22:46:21.130Z,25.07
2023-02-08T22:48:47.819Z,23.73
2023-02-08T22:51:17.125Z,24.43
2023-02-08T22:53:44.920Z,20.60
2023-02-08T22:56:14.892Z,24.87
2023-02-08T22:58:41.881Z,26.90
2023-02-08T23:01:16.619Z,23.93
2023-02-08T23:03:43.630Z,21.03
2023-02-08T23:06:12.801Z,21.60
2023-02-08T23:08:42.478Z,19.37
2023-02-08T23:11:12.333Z,22.87
2023-02-08T23:13:39.033Z,21.50
2023-02-08T23:16:06.235Z,21.93
2023-02-08T23:18:34.756Z,20.63
2023-02-08T23:21:10.357Z,19.70
2023-02-08T23:23:37.367Z,19.43
2023-02-08T23:26:06.102Z,22.97
2023-02-08T23:28:33.301Z,23.77
2023-02-08T23:31:00.330Z,18.83
2023-02-08T23:33:27.138Z,19.60
2023-02-08T23:35:53.887Z,21.27
2023-02-08T23:38:21.743Z,18.83
2023-02-08T23:40:48.347Z,23.67
2023-02-08T23:43:14.983Z,21.87
2023-02-08T23:45:41.609Z,23.37
2023-02-08T23:48:08.422Z,17.83
2023-02-08T23:50:35.066Z,21.57
2023-02-08T23:53:01.774Z,20.17
2023-02-08T23:55:28.493Z,17.97
2023-02-08T23:57:55.375Z,20.00
